Chitose — JD2925 — position and weather

sailwx.info

Track history (hours):
 
Tides and Currents Weather Stations Pressure Air Temp Water Temp Dewpoint Dewpoint Depression Visibility Wind Speed Wind Dir Waves Ship Positions

Chitose

Last reported at 2017-Feb-23 06:33 UTC. Time now 2017-Feb-23 07:18 UTC.
Position N 35°27' E 139°39'.

Length 33 m; draft 3.8 m.

Type: Tug. MMSI: 431000953.

Date/timePositionNaut miles runAvg speedWind from/ knotsBaromVisibWave heightAir tempDewpointWater temp
2017-Feb-23 06:33N 35°27' E 139°39'2 2.1
2017-Feb-23 05:33N 35°26' E 139°41'2 2.1
2017-Feb-23 04:33N 35°27' E 139°39'0 0.0
2017-Feb-23 03:33N 35°27' E 139°39'0 0.0
2017-Feb-23 02:33N 35°27' E 139°39'0 0.0
2017-Feb-23 01:33N 35°27' E 139°39'0 0.0
2017-Feb-23 00:33N 35°27' E 139°39'0 0.0
2017-Feb-22 23:33N 35°27' E 139°39'0 0.0
2017-Feb-22 22:33N 35°27' E 139°39'0 0.0
2017-Feb-22 06:34N 35°27' E 139°39'1 1.4
2017-Feb-22 05:34N 35°27' E 139°40'1 1.2
2017-Feb-22 04:34N 35°27' E 139°42'1 1.4
2017-Feb-22 03:34N 35°28' E 139°40'0 0.0
2017-Feb-22 02:34N 35°28' E 139°40'0 0.0
2017-Feb-22 01:33N 35°28' E 139°40'0 0.0
2017-Feb-22 00:34N 35°28' E 139°40'0 0.0
2017-Feb-21 23:33N 35°28' E 139°40'0 0.0
2017-Feb-21 22:34N 35°28' E 139°40'2 2.1
2017-Feb-21 21:34N 35°29' E 139°42'2 1.6
2017-Feb-21 20:34N 35°30' E 139°44'5 5.0
2017-Feb-21 19:34N 35°27' E 139°39'0 0.0
2017-Feb-21 04:31N 35°27' E 139°39'  
2017-Feb-14 06:34N 35°29' E 139°39'2 1.7
2017-Feb-14 05:33N 35°27' E 139°40'  
Track history (hours):
 
Tides and Currents Weather Stations Pressure Air Temp Water Temp Dewpoint Dewpoint Depression Visibility Wind Speed Wind Dir Waves Ship Positions

Chitose

Last reported at 2017-Feb-23 06:33 UTC. Time now 2017-Feb-23 07:18 UTC.
Position N 35°27' E 139°39'.

Length 33 m; draft 3.8 m.

Type: Tug. MMSI: 431000953.

Date/timePositionNaut miles runAvg speedWind from/ knotsBaromVisibWave heightAir tempDewpointWater temp
2017-Feb-23 06:33N 35°27' E 139°39'2 2.1
2017-Feb-23 05:33N 35°26' E 139°41'2 2.1
2017-Feb-23 04:33N 35°27' E 139°39'0 0.0
2017-Feb-23 03:33N 35°27' E 139°39'0 0.0
2017-Feb-23 02:33N 35°27' E 139°39'0 0.0
2017-Feb-23 01:33N 35°27' E 139°39'0 0.0
2017-Feb-23 00:33N 35°27' E 139°39'0 0.0
2017-Feb-22 23:33N 35°27' E 139°39'0 0.0
2017-Feb-22 22:33N 35°27' E 139°39'0 0.0
2017-Feb-22 06:34N 35°27' E 139°39'1 1.4
2017-Feb-22 05:34N 35°27' E 139°40'1 1.2
2017-Feb-22 04:34N 35°27' E 139°42'1 1.4
2017-Feb-22 03:34N 35°28' E 139°40'0 0.0
2017-Feb-22 02:34N 35°28' E 139°40'0 0.0
2017-Feb-22 01:33N 35°28' E 139°40'0 0.0
2017-Feb-22 00:34N 35°28' E 139°40'0 0.0
2017-Feb-21 23:33N 35°28' E 139°40'0 0.0
2017-Feb-21 22:34N 35°28' E 139°40'2 2.1
2017-Feb-21 21:34N 35°29' E 139°42'2 1.6
2017-Feb-21 20:34N 35°30' E 139°44'5 5.0
2017-Feb-21 19:34N 35°27' E 139°39'0 0.0
2017-Feb-21 04:31N 35°27' E 139°39'  
2017-Feb-14 06:34N 35°29' E 139°39'2 1.7
2017-Feb-14 05:33N 35°27' E 139°40'  

Dump ship's entire track history